Time;durP1;ratioP1;P1;durP2;ratioP2;P2;SDS_P1;SDS_P2;PMS_P1;PMS_P2;Temp;Humidity;BMP_temperature;BMP_pressure;BME280_temperature;BME280_humidity;BME280_pressure;Samples;Min_cycle;Max_cycle;Signal;HPM_P1;HPM_P2
2023/01/04 00:00:00;;;;;;;10.50;5.75;;;;;;;;;;5058662;28;20546;-68
2023/01/04 00:02:45;;;;;;;12.45;6.75;;;;;;;;;;5047556;28;20476;-68
2023/01/04 00:05:30;;;;;;;10.43;6.07;;;;;;;;;;5064550;28;20036;-66
2023/01/04 00:08:15;;;;;;;10.50;5.93;;;;;;;;;;5063769;28;20227;-69
2023/01/04 00:11:11;;;;;;;8.45;4.70;;;;;;;;;;5071844;28;20036;-68
2023/01/04 00:13:58;;;;;;;10.27;5.60;;;;;;;;;;5073203;28;20116;-67
2023/01/04 00:16:43;;;;;;;11.52;5.82;;;;;;;;;;5077814;28;20474;-69
2023/01/04 00:19:28;;;;;;;8.45;5.43;;;;;;;;;;5068961;28;20036;-69
2023/01/04 00:22:13;;;;;;;8.27;5.07;;;;;;;;;;5073356;28;20044;-75
2023/01/04 00:24:59;;;;;;;11.10;5.40;;;;;;;;;;5067983;28;20543;-68
2023/01/04 00:27:44;;;;;;;8.05;4.72;;;;;;;;;;5068211;28;20082;-70
2023/01/04 00:30:29;;;;;;;8.98;5.40;;;;;;;;;;5068210;28;20040;-68
2023/01/04 00:33:14;;;;;;;10.98;5.38;;;;;;;;;;5054504;28;20528;-69
2023/01/04 00:36:07;;;;;;;10.05;5.97;;;;;;;;;;5071676;28;20639;-67
2023/01/04 00:39:08;;;;;;;10.73;5.40;;;;;;;;;;5073792;28;20094;-68
2023/01/04 00:42:03;;;;;;;8.80;5.55;;;;;;;;;;5068122;28;20040;-75
2023/01/04 00:44:49;;;;;;;8.85;4.80;;;;;;;;;;5067952;28;20103;-67
2023/01/04 00:47:34;;;;;;;10.07;6.43;;;;;;;;;;5065467;28;20028;-67
2023/01/04 00:50:19;;;;;;;10.20;5.45;;;;;;;;;;5052103;28;20047;-67
2023/01/04 00:53:04;;;;;;;10.85;6.15;;;;;;;;;;5073459;28;20116;-68
2023/01/04 00:55:50;;;;;;;8.82;5.32;;;;;;;;;;5067696;28;20460;-67
2023/01/04 00:58:35;;;;;;;9.85;5.45;;;;;;;;;;5067978;28;20051;-73
2023/01/04 01:01:20;;;;;;;7.60;5.32;;;;;;;;;;5060829;28;20707;-69
2023/01/04 01:04:05;;;;;;;9.05;5.60;;;;;;;;;;5069505;28;20107;-68
2023/01/04 01:06:51;;;;;;;9.57;6.22;;;;;;;;;;5069661;28;20437;-67
2023/01/04 01:09:36;;;;;;;10.75;5.72;;;;;;;;;;5066971;28;20394;-67
2023/01/04 01:12:21;;;;;;;7.82;4.75;;;;;;;;;;5077138;28;20418;-69
2023/01/04 01:15:07;;;;;;;10.23;5.68;;;;;;;;;;5067816;28;20025;-70
2023/01/04 01:17:52;;;;;;;9.80;5.90;;;;;;;;;;5081531;28;20038;-76
2023/01/04 01:20:42;;;;;;;10.18;6.00;;;;;;;;;;5067104;28;20041;-74
2023/01/04 01:23:28;;;;;;;9.80;5.05;;;;;;;;;;5072812;28;20121;-76
2023/01/04 01:26:14;;;;;;;10.02;5.75;;;;;;;;;;5067985;28;20484;-76
2023/01/04 01:28:59;;;;;;;8.70;5.38;;;;;;;;;;5074555;28;20028;-75
2023/01/04 01:31:44;;;;;;;8.90;5.25;;;;;;;;;;5077262;28;20047;-76
2023/01/04 01:34:30;;;;;;;8.77;5.80;;;;;;;;;;5070998;28;20047;-79
2023/01/04 01:37:15;;;;;;;9.80;5.50;;;;;;;;;;5076485;28;20140;-70
2023/01/04 01:40:00;;;;;;;10.80;5.80;;;;;;;;;;5066952;28;20048;-70
2023/01/04 01:42:45;;;;;;;8.45;4.88;;;;;;;;;;5080021;28;20135;-69
2023/01/04 01:45:32;;;;;;;8.27;5.13;;;;;;;;;;5066901;28;20553;-71
2023/01/04 01:48:21;;;;;;;8.32;4.97;;;;;;;;;;5066177;28;20045;-72
2023/01/04 01:51:06;;;;;;;11.53;5.73;;;;;;;;;;5058114;28;20041;-70
2023/01/04 01:53:55;;;;;;;8.80;5.00;;;;;;;;;;5066085;28;20658;-68
2023/01/04 01:56:42;;;;;;;9.98;5.30;;;;;;;;;;5071938;28;20028;-80
2023/01/04 01:59:28;;;;;;;10.52;5.43;;;;;;;;;;5050335;28;20520;-80
2023/01/04 02:02:13;;;;;;;8.70;5.03;;;;;;;;;;5074078;28;20036;-79
2023/01/04 02:04:59;;;;;;;6.78;4.22;;;;;;;;;;5071703;28;20044;-79
2023/01/04 02:07:44;;;;;;;10.45;5.78;;;;;;;;;;5063907;28;20029;-79
2023/01/04 02:10:30;;;;;;;8.80;4.75;;;;;;;;;;5065748;28;20045;-80
2023/01/04 02:13:17;;;;;;;8.15;4.50;;;;;;;;;;5076267;28;20439;-79
2023/01/04 02:16:22;;;;;;;7.60;4.60;;;;;;;;;;5070974;28;20225;-73
2023/01/04 02:19:26;;;;;;;8.48;4.68;;;;;;;;;;5070652;28;20400;-74
2023/01/04 02:22:29;;;;;;;8.30;5.03;;;;;;;;;;5074812;28;20490;-74
2023/01/04 02:25:21;;;;;;;9.10;4.72;;;;;;;;;;5070938;28;20029;-73
2023/01/04 02:28:21;;;;;;;10.82;6.03;;;;;;;;;;5063864;28;20514;-72
2023/01/04 02:31:19;;;;;;;9.20;4.57;;;;;;;;;;5070591;28;20028;-74
2023/01/04 02:34:15;;;;;;;6.85;4.53;;;;;;;;;;5070640;28;20119;-79
2023/01/04 02:37:09;;;;;;;9.07;5.28;;;;;;;;;;5073981;28;20028;-80
2023/01/04 02:39:54;;;;;;;9.90;5.07;;;;;;;;;;5069208;28;20032;-80
2023/01/04 02:46:08;;;;;;;6.43;4.03;;;;;;;;;;5063243;28;20029;-80
2023/01/04 02:52:01;;;;;;;6.53;4.20;;;;;;;;;;5056207;28;20670;-72
2023/01/04 02:54:47;;;;;;;7.40;4.75;;;;;;;;;;5069629;28;20040;-71
2023/01/04 02:57:32;;;;;;;12.50;3.95;;;;;;;;;;5070586;28;20385;-73
2023/01/04 03:00:24;;;;;;;7.28;4.40;;;;;;;;;;5057942;28;20488;-73
2023/01/04 03:06:30;;;;;;;7.28;4.30;;;;;;;;;;5069786;28;20040;-75
2023/01/04 03:09:20;;;;;;;7.35;4.50;;;;;;;;;;5067574;28;20475;-75
2023/01/04 03:12:31;;;;;;;5.53;3.40;;;;;;;;;;5054477;28;20041;-73
2023/01/04 03:15:20;;;;;;;7.63;3.80;;;;;;;;;;5055935;28;20053;-71
2023/01/04 03:18:11;;;;;;;6.60;3.88;;;;;;;;;;5058815;28;20037;-73
2023/01/04 03:20:58;;;;;;;9.43;4.22;;;;;;;;;;5082444;28;20496;-72
2023/01/04 03:36:39;;;;;;;7.00;3.78;;;;;;;;;;5082020;28;20041;-74
2023/01/04 03:49:12;;;;;;;5.07;3.35;;;;;;;;;;5084004;28;20391;-73
2023/01/04 03:51:59;;;;;;;6.22;3.63;;;;;;;;;;5048921;28;20119;-72
2023/01/04 03:54:46;;;;;;;7.85;4.22;;;;;;;;;;5072776;28;20054;-74
2023/01/04 03:57:33;;;;;;;7.18;3.83;;;;;;;;;;5078679;28;20081;-72
2023/01/04 04:00:18;;;;;;;6.13;3.60;;;;;;;;;;5060835;28;20048;-75
2023/01/04 04:03:08;;;;;;;6.50;3.45;;;;;;;;;;5073249;28;20195;-67
2023/01/04 04:08:57;;;;;;;6.05;3.67;;;;;;;;;;5068359;28;20419;-74
2023/01/04 04:11:43;;;;;;;5.60;3.92;;;;;;;;;;5068607;28;20031;-73
2023/01/04 04:14:28;;;;;;;6.55;3.80;;;;;;;;;;5074431;28;20040;-73
2023/01/04 04:17:13;;;;;;;4.55;2.72;;;;;;;;;;5068646;28;20041;-72
2023/01/04 04:19:58;;;;;;;5.13;3.30;;;;;;;;;;5074536;28;20032;-69
2023/01/04 04:22:43;;;;;;;7.43;3.40;;;;;;;;;;5076709;28;20058;-68
2023/01/04 04:25:28;;;;;;;6.47;3.30;;;;;;;;;;5067882;28;20036;-74
2023/01/04 04:28:14;;;;;;;7.20;3.20;;;;;;;;;;5075867;28;20047;-73
2023/01/04 04:30:59;;;;;;;5.50;3.10;;;;;;;;;;5080572;28;20451;-74
2023/01/04 04:33:44;;;;;;;4.88;3.10;;;;;;;;;;5077234;28;20040;-73
2023/01/04 04:36:29;;;;;;;5.30;2.78;;;;;;;;;;5068041;28;20074;-73
2023/01/04 04:39:14;;;;;;;7.00;3.25;;;;;;;;;;5070119;28;20097;-77
2023/01/04 04:42:00;;;;;;;6.32;3.60;;;;;;;;;;5055466;28;20025;-74
2023/01/04 04:44:45;;;;;;;5.40;3.10;;;;;;;;;;5077596;28;20033;-73
2023/01/04 04:47:30;;;;;;;6.07;3.35;;;;;;;;;;5067509;28;20554;-73
2023/01/04 04:50:15;;;;;;;4.45;2.60;;;;;;;;;;5075976;28;20256;-73
2023/01/04 04:53:01;;;;;;;3.92;2.45;;;;;;;;;;5071698;28;20451;-74
2023/01/04 04:55:46;;;;;;;3.40;2.30;;;;;;;;;;5071918;28;20041;-73
2023/01/04 04:58:31;;;;;;;4.05;2.13;;;;;;;;;;5061911;28;20035;-80
2023/01/04 05:01:16;;;;;;;3.85;2.28;;;;;;;;;;5066801;28;20044;-73
2023/01/04 05:04:02;;;;;;;3.50;2.50;;;;;;;;;;5079732;28;20032;-73
2023/01/04 05:06:48;;;;;;;4.30;2.63;;;;;;;;;;5057542;28;20481;-73
2023/01/04 05:09:33;;;;;;;5.80;2.45;;;;;;;;;;5068082;28;20617;-73
2023/01/04 05:15:22;;;;;;;3.22;2.08;;;;;;;;;;5058853;28;20044;-70
2023/01/04 05:18:08;;;;;;;3.38;1.80;;;;;;;;;;5072825;28;20028;-74
2023/01/04 05:20:53;;;;;;;2.88;1.98;;;;;;;;;;5060617;28;20037;-73
2023/01/04 05:23:39;;;;;;;3.85;2.47;;;;;;;;;;5076484;28;20044;-73
2023/01/04 05:26:24;;;;;;;3.50;1.95;;;;;;;;;;5068674;28;20071;-73
2023/01/04 05:30:49;;;;;;;4.18;1.95;;;;;;;;;;5073238;28;20364;-73
2023/01/04 05:32:14;;;;;;;3.08;1.98;;;;;;;;;;5067395;28;20407;-73
2023/01/04 05:34:59;;;;;;;4.13;2.47;;;;;;;;;;5071768;28;20082;-66
2023/01/04 05:37:44;;;;;;;2.78;1.80;;;;;;;;;;5056444;28;20033;-70
2023/01/04 05:40:30;;;;;;;3.28;2.05;;;;;;;;;;5063238;28;20041;-70
2023/01/04 05:43:16;;;;;;;3.67;2.03;;;;;;;;;;5084748;28;20107;-69
2023/01/04 05:46:01;;;;;;;3.28;2.15;;;;;;;;;;5067451;28;20028;-68
2023/01/04 05:48:46;;;;;;;2.97;1.90;;;;;;;;;;5070695;28;20489;-68
2023/01/04 05:51:31;;;;;;;2.20;1.58;;;;;;;;;;5066773;28;20112;-70
2023/01/04 05:54:17;;;;;;;2.70;1.98;;;;;;;;;;5066849;28;20028;-72
2023/01/04 05:57:02;;;;;;;5.53;2.40;;;;;;;;;;5047206;28;20071;-74
2023/01/04 05:59:47;;;;;;;2.67;1.90;;;;;;;;;;5068299;28;20067;-74
2023/01/04 06:02:32;;;;;;;3.50;1.80;;;;;;;;;;5067350;28;20163;-73
2023/01/04 06:05:17;;;;;;;4.97;2.42;;;;;;;;;;5075379;28;20123;-73
2023/01/04 06:08:03;;;;;;;3.15;1.83;;;;;;;;;;5072670;28;20036;-73
2023/01/04 06:10:53;;;;;;;6.32;2.65;;;;;;;;;;5067089;28;20151;-72
2023/01/04 06:13:38;;;;;;;;;;;;;;;;;;5076488;28;20093;-70
2023/01/04 06:16:23;;;;;;;3.05;2.00;;;;;;;;;;5066867;28;19912;-68
2023/01/04 06:19:08;;;;;;;4.43;2.42;;;;;;;;;;5066838;28;20093;-68
2023/01/04 06:21:53;;;;;;;4.47;2.10;;;;;;;;;;5056157;28;20264;-69
2023/01/04 06:24:38;;;;;;;5.40;2.60;;;;;;;;;;5070790;28;20070;-67
2023/01/04 06:27:24;;;;;;;2.92;1.95;;;;;;;;;;5066979;28;20721;-68
2023/01/04 06:30:09;;;;;;;3.42;1.90;;;;;;;;;;5066716;28;20033;-74
2023/01/04 06:32:54;;;;;;;3.20;1.77;;;;;;;;;;5066804;28;20062;-75
2023/01/04 06:35:40;;;;;;;2.92;1.60;;;;;;;;;;5051686;28;20074;-74
2023/01/04 06:38:25;;;;;;;3.33;2.08;;;;;;;;;;5060113;28;20048;-73
2023/01/04 06:41:10;;;;;;;3.65;1.75;;;;;;;;;;5040787;28;20051;-74
2023/01/04 06:43:56;;;;;;;2.83;2.10;;;;;;;;;;5066405;28;20482;-73
2023/01/04 06:46:41;;;;;;;2.80;1.80;;;;;;;;;;5069728;28;20111;-74
2023/01/04 06:49:26;;;;;;;2.85;1.80;;;;;;;;;;5080270;28;20044;-70
2023/01/04 06:52:11;;;;;;;4.43;2.10;;;;;;;;;;5070366;28;20093;-72
2023/01/04 06:54:57;;;;;;;2.83;1.92;;;;;;;;;;5058730;28;20531;-71
2023/01/04 06:57:42;;;;;;;2.58;1.58;;;;;;;;;;5070107;28;20050;-70
2023/01/04 07:00:27;;;;;;;5.78;1.88;;;;;;;;;;5072349;28;20446;-71
2023/01/04 07:03:12;;;;;;;3.88;2.05;;;;;;;;;;5070268;28;20064;-70
2023/01/04 07:05:58;;;;;;;4.25;2.33;;;;;;;;;;5069728;28;20036;-72
2023/01/04 07:08:43;;;;;;;5.82;2.97;;;;;;;;;;5090814;28;20252;-69
2023/01/04 07:11:28;;;;;;;3.72;2.15;;;;;;;;;;5071294;28;20196;-69
2023/01/04 07:14:13;;;;;;;3.38;1.90;;;;;;;;;;5074967;28;20075;-68
2023/01/04 07:16:58;;;;;;;2.70;1.88;;;;;;;;;;5058514;28;20028;-69
2023/01/04 07:19:43;;;;;;;3.22;1.80;;;;;;;;;;5075185;28;20060;-69
2023/01/04 07:22:29;;;;;;;2.60;1.48;;;;;;;;;;5076815;28;20043;-69
2023/01/04 07:25:14;;;;;;;1.50;1.33;;;;;;;;;;5069072;28;20036;-70
2023/01/04 07:27:59;;;;;;;3.20;1.85;;;;;;;;;;5067749;28;20085;-72
2023/01/04 07:30:44;;;;;;;2.25;1.42;;;;;;;;;;5080981;28;20089;-73
2023/01/04 07:33:30;;;;;;;6.07;1.50;;;;;;;;;;5069350;28;20521;-71
2023/01/04 07:36:15;;;;;;;2.53;1.40;;;;;;;;;;5059099;28;20032;-73
2023/01/04 07:39:00;;;;;;;2.33;1.30;;;;;;;;;;5062817;28;20024;-75
2023/01/04 07:41:46;;;;;;;2.92;1.35;;;;;;;;;;5072275;28;20052;-74
2023/01/04 07:44:31;;;;;;;3.75;1.52;;;;;;;;;;5075061;28;20119;-71
2023/01/04 07:47:17;;;;;;;1.35;1.20;;;;;;;;;;5072910;28;20545;-67
2023/01/04 07:50:02;;;;;;;3.85;2.15;;;;;;;;;;5078930;28;20036;-69
2023/01/04 07:52:47;;;;;;;2.65;1.38;;;;;;;;;;5069685;28;20515;-68
2023/01/04 07:55:32;;;;;;;3.50;1.50;;;;;;;;;;5082975;28;20036;-68
2023/01/04 07:58:18;;;;;;;5.72;1.35;;;;;;;;;;5056850;28;20036;-67
2023/01/04 08:01:13;;;;;;;2.45;1.52;;;;;;;;;;5067587;28;20052;-70
2023/01/04 08:03:59;;;;;;;2.80;1.38;;;;;;;;;;5062349;28;20111;-68
2023/01/04 08:06:48;;;;;;;2.55;1.27;;;;;;;;;;5058556;28;20453;-69
2023/01/04 08:09:33;;;;;;;2.17;1.17;;;;;;;;;;5070683;28;20387;-67
2023/01/04 08:12:18;;;;;;;2.55;1.25;;;;;;;;;;5077036;28;20043;-70
2023/01/04 08:15:03;;;;;;;1.45;1.10;;;;;;;;;;5070619;28;20036;-69
2023/01/04 08:17:49;;;;;;;3.10;1.20;;;;;;;;;;5068640;28;20111;-68
2023/01/04 08:20:35;;;;;;;3.53;1.58;;;;;;;;;;5070602;28;20117;-73
2023/01/04 08:23:20;;;;;;;7.05;1.40;;;;;;;;;;5077211;28;20109;-68
2023/01/04 08:26:06;;;;;;;2.08;1.08;;;;;;;;;;5071313;28;20062;-69
2023/01/04 08:28:52;;;;;;;4.88;1.40;;;;;;;;;;5054009;28;20493;-68
2023/01/04 08:31:37;;;;;;;1.92;0.90;;;;;;;;;;5068281;28;20039;-67
2023/01/04 08:34:23;;;;;;;1.80;1.10;;;;;;;;;;5069929;28;20048;-68
2023/01/04 08:37:08;;;;;;;5.25;1.38;;;;;;;;;;5074297;28;20114;-68
2023/01/04 08:39:53;;;;;;;2.70;1.77;;;;;;;;;;5064687;28;20067;-72
2023/01/04 08:42:38;;;;;;;3.08;1.38;;;;;;;;;;5071008;28;20254;-68
2023/01/04 08:45:24;;;;;;;1.63;1.15;;;;;;;;;;5077832;28;20071;-68
2023/01/04 08:48:09;;;;;;;5.28;1.67;;;;;;;;;;5073144;28;20169;-67
2023/01/04 08:50:57;;;;;;;5.18;1.55;;;;;;;;;;5079698;28;20086;-69
2023/01/04 08:53:43;;;;;;;2.85;1.40;;;;;;;;;;5067750;28;20043;-70
2023/01/04 08:56:28;;;;;;;5.50;1.33;;;;;;;;;;5078183;28;20033;-77
2023/01/04 08:59:13;;;;;;;1.55;0.88;;;;;;;;;;5066531;28;20048;-74
2023/01/04 09:01:58;;;;;;;1.90;1.10;;;;;;;;;;5071240;28;20036;-74
2023/01/04 09:04:43;;;;;;;3.92;1.10;;;;;;;;;;5070581;28;20040;-74
2023/01/04 09:07:30;;;;;;;3.03;1.10;;;;;;;;;;5079428;28;20040;-73
2023/01/04 09:10:15;;;;;;;1.48;1.05;;;;;;;;;;5074265;28;20039;-73
2023/01/04 09:13:00;;;;;;;5.80;1.88;;;;;;;;;;5070012;28;20149;-72
2023/01/04 09:15:45;;;;;;;2.05;1.17;;;;;;;;;;5085593;28;20323;-74
2023/01/04 09:18:31;;;;;;;2.33;1.00;;;;;;;;;;5064774;28;20029;-69
2023/01/04 09:21:18;;;;;;;2.38;1.65;;;;;;;;;;5080055;28;20514;-67
2023/01/04 09:24:03;;;;;;;1.48;0.93;;;;;;;;;;5076222;28;20040;-69
2023/01/04 09:26:49;;;;;;;4.00;1.38;;;;;;;;;;5079515;28;20095;-67
2023/01/04 09:29:34;;;;;;;3.25;1.17;;;;;;;;;;5057446;28;20114;-69
2023/01/04 09:32:19;;;;;;;2.58;1.25;;;;;;;;;;5067550;28;20134;-68
2023/01/04 09:35:04;;;;;;;2.70;1.05;;;;;;;;;;5071750;28;20036;-67
2023/01/04 09:37:50;;;;;;;1.95;1.10;;;;;;;;;;5055699;28;20043;-68
2023/01/04 09:41:00;;;;;;;2.95;1.00;;;;;;;;;;5069337;28;20040;-68
2023/01/04 09:43:48;;;;;;;2.72;1.08;;;;;;;;;;5061821;28;20051;-69
2023/01/04 09:46:33;;;;;;;1.13;1.00;;;;;;;;;;5069004;28;20362;-69
2023/01/04 09:49:29;;;;;;;3.55;1.00;;;;;;;;;;5081781;28;20039;-69
2023/01/04 09:52:26;;;;;;;3.05;1.33;;;;;;;;;;5067420;28;20371;-74
2023/01/04 09:55:15;;;;;;;2.97;1.00;;;;;;;;;;5071009;28;20414;-80
2023/01/04 09:58:02;;;;;;;1.50;0.88;;;;;;;;;;5066236;28;20182;-81
2023/01/04 10:00:50;;;;;;;2.25;1.20;;;;;;;;;;5074248;28;20036;-80
2023/01/04 10:03:40;;;;;;;2.70;1.33;;;;;;;;;;5057949;28;20044;-80
2023/01/04 10:06:25;;;;;;;;;;;;;;;;;;5075382;28;20048;-82
2023/01/04 10:09:14;;;;;;;1.65;0.90;;;;;;;;;;5071346;28;19923;-82
2023/01/04 10:12:04;;;;;;;1.48;0.88;;;;;;;;;;5075387;28;20017;-73
2023/01/04 10:14:55;;;;;;;1.80;1.10;;;;;;;;;;5067141;28;20086;-70
2023/01/04 10:17:57;;;;;;;2.05;0.90;;;;;;;;;;5066709;28;20472;-70
2023/01/04 10:20:42;;;;;;;1.88;1.08;;;;;;;;;;5081702;28;20055;-69
2023/01/04 10:23:33;;;;;;;1.77;0.90;;;;;;;;;;5079879;28;20037;-68
2023/01/04 10:26:29;;;;;;;6.18;2.20;;;;;;;;;;5079752;28;20547;-68
2023/01/04 10:29:17;;;;;;;2.22;1.10;;;;;;;;;;5070909;28;20040;-71
2023/01/04 10:32:15;;;;;;;2.55;1.13;;;;;;;;;;5070669;28;20418;-70
2023/01/04 10:35:01;;;;;;;2.33;0.90;;;;;;;;;;5070866;28;20383;-70
2023/01/04 10:37:48;;;;;;;2.90;1.42;;;;;;;;;;5070949;28;20025;-69
2023/01/04 10:40:36;;;;;;;2.28;0.90;;;;;;;;;;5071164;28;20032;-68
2023/01/04 10:43:37;;;;;;;1.77;1.15;;;;;;;;;;5070855;28;20120;-70
2023/01/04 10:46:31;;;;;;;4.63;1.25;;;;;;;;;;5072215;28;20086;-70
2023/01/04 10:49:24;;;;;;;2.08;1.52;;;;;;;;;;5080415;28;20052;-75
2023/01/04 10:52:18;;;;;;;4.57;1.73;;;;;;;;;;5080546;28;20070;-70
2023/01/04 10:55:05;;;;;;;1.23;0.85;;;;;;;;;;5079110;28;20035;-70
2023/01/04 10:57:55;;;;;;;2.33;1.30;;;;;;;;;;5070109;28;20111;-70
2023/01/04 11:00:52;;;;;;;1.08;0.70;;;;;;;;;;5072060;28;20115;-71
2023/01/04 11:03:50;;;;;;;2.15;1.10;;;;;;;;;;5060577;28;20044;-70
2023/01/04 11:06:45;;;;;;;2.08;1.00;;;;;;;;;;5074330;28;20357;-74
2023/01/04 11:09:49;;;;;;;0.90;0.80;;;;;;;;;;5071390;28;20085;-74
2023/01/04 11:12:34;;;;;;;1.70;0.77;;;;;;;;;;5074095;28;20376;-74
2023/01/04 11:15:20;;;;;;;1.58;0.95;;;;;;;;;;5070330;28;20045;-75
2023/01/04 11:18:06;;;;;;;3.00;1.05;;;;;;;;;;5069814;28;20025;-74
2023/01/04 11:20:52;;;;;;;1.67;1.00;;;;;;;;;;5072676;28;20047;-74
2023/01/04 11:23:37;;;;;;;2.10;0.90;;;;;;;;;;5080996;28;20051;-75
2023/01/04 11:26:28;;;;;;;0.93;0.93;;;;;;;;;;5074451;28;20039;-73
2023/01/04 11:29:36;;;;;;;2.92;1.02;;;;;;;;;;5069821;28;20059;-73
2023/01/04 11:32:24;;;;;;;1.73;1.10;;;;;;;;;;5077630;28;20037;-72
2023/01/04 11:35:10;;;;;;;2.78;1.25;;;;;;;;;;5069513;28;20036;-73
2023/01/04 11:38:06;;;;;;;2.00;1.20;;;;;;;;;;5066170;28;20450;-73
2023/01/04 11:41:02;;;;;;;3.17;1.08;;;;;;;;;;5070205;28;20056;-72
2023/01/04 11:44:02;;;;;;;1.70;0.90;;;;;;;;;;5074608;28;20375;-72
2023/01/04 11:47:03;;;;;;;2.67;1.63;;;;;;;;;;5070688;28;20124;-71
2023/01/04 11:49:48;;;;;;;1.85;0.80;;;;;;;;;;5084541;28;20066;-72
2023/01/04 11:52:35;;;;;;;1.95;0.93;;;;;;;;;;5083993;28;20055;-72
2023/01/04 11:55:25;;;;;;;2.30;1.35;;;;;;;;;;5074459;28;20051;-72
2023/01/04 11:58:13;;;;;;;2.17;1.00;;;;;;;;;;5070396;28;20032;-73
2023/01/04 12:00:58;;;;;;;1.65;0.90;;;;;;;;;;5051442;28;20033;-68
2023/01/04 12:03:44;;;;;;;1.73;1.00;;;;;;;;;;5060587;28;20454;-73
2023/01/04 12:06:35;;;;;;;2.40;0.98;;;;;;;;;;5074701;28;20062;-72
2023/01/04 12:09:21;;;;;;;1.55;1.10;;;;;;;;;;5065625;28;20032;-72
2023/01/04 12:12:06;;;;;;;1.70;0.95;;;;;;;;;;5068595;28;20211;-73
2023/01/04 12:14:51;;;;;;;2.97;1.20;;;;;;;;;;5068629;28;20111;-72
2023/01/04 12:17:55;;;;;;;1.73;1.20;;;;;;;;;;5069208;28;20131;-70
2023/01/04 12:20:40;;;;;;;1.63;1.35;;;;;;;;;;5059707;28;20040;-68
2023/01/04 12:23:26;;;;;;;0.82;0.82;;;;;;;;;;5076777;28;20044;-71
2023/01/04 12:26:11;;;;;;;1.65;1.30;;;;;;;;;;5070376;28;20062;-71
2023/01/04 12:29:15;;;;;;;1.10;1.00;;;;;;;;;;5060577;28;20082;-71
2023/01/04 12:32:04;;;;;;;3.60;1.25;;;;;;;;;;5074125;28;20107;-73
2023/01/04 12:34:49;;;;;;;2.33;1.23;;;;;;;;;;5068259;28;20033;-73
2023/01/04 12:37:44;;;;;;;2.20;1.17;;;;;;;;;;5072658;28;20159;-80
2023/01/04 12:40:45;;;;;;;2.67;1.20;;;;;;;;;;5063860;28;20498;-80
2023/01/04 12:43:36;;;;;;;5.97;2.42;;;;;;;;;;5068092;28;20078;-80
2023/01/04 12:49:40;;;;;;;2.65;1.13;;;;;;;;;;5075102;28;20044;-80
2023/01/04 12:52:26;;;;;;;2.92;1.25;;;;;;;;;;5076361;28;20036;-80
2023/01/04 12:55:26;;;;;;;1.52;0.88;;;;;;;;;;5067873;28;20039;-80
2023/01/04 12:58:27;;;;;;;2.17;0.88;;;;;;;;;;5077239;28;20036;-73
2023/01/04 13:01:28;;;;;;;3.55;1.30;;;;;;;;;;5071460;28;20058;-72
2023/01/04 13:04:27;;;;;;;1.83;1.20;;;;;;;;;;5063259;28;20506;-71
2023/01/04 13:07:17;;;;;;;3.13;1.33;;;;;;;;;;5081627;28;20118;-71
2023/01/04 13:10:18;;;;;;;1.10;1.00;;;;;;;;;;5054784;28;20036;-73
2023/01/04 13:13:06;;;;;;;3.10;1.48;;;;;;;;;;5078115;28;20075;-72
2023/01/04 13:16:07;;;;;;;1.27;0.90;;;;;;;;;;5067435;28;20078;-74
2023/01/04 13:18:54;;;;;;;2.35;0.95;;;;;;;;;;5067695;28;20044;-71
2023/01/04 13:21:40;;;;;;;4.05;1.17;;;;;;;;;;5054503;28;20066;-73
2023/01/04 13:24:27;;;;;;;2.75;1.50;;;;;;;;;;5061104;28;20039;-71
2023/01/04 13:27:20;;;;;;;1.85;1.38;;;;;;;;;;5064720;28;20112;-74
2023/01/04 13:30:05;;;;;;;1.98;1.10;;;;;;;;;;5061857;28;20042;-71
2023/01/04 13:32:50;;;;;;;2.20;0.90;;;;;;;;;;5073965;28;20028;-68
2023/01/04 13:35:36;;;;;;;2.22;1.48;;;;;;;;;;5067477;28;20040;-74
2023/01/04 13:38:21;;;;;;;1.38;0.90;;;;;;;;;;5059595;28;20068;-75
2023/01/04 13:41:18;;;;;;;3.30;1.23;;;;;;;;;;5054344;28;20025;-77
2023/01/04 13:44:10;;;;;;;1.85;1.15;;;;;;;;;;5078998;28;20036;-76
2023/01/04 13:46:56;;;;;;;2.97;1.10;;;;;;;;;;5070126;28;20421;-75
2023/01/04 13:49:41;;;;;;;2.78;1.17;;;;;;;;;;5074700;28;20025;-75
2023/01/04 13:52:27;;;;;;;3.15;0.90;;;;;;;;;;5071204;28;20486;-74
2023/01/04 13:55:18;;;;;;;2.63;1.10;;;;;;;;;;5068304;28;20040;-73
2023/01/04 13:58:05;;;;;;;1.05;0.93;;;;;;;;;;5076680;28;20043;-72
2023/01/04 14:00:58;;;;;;;2.55;1.20;;;;;;;;;;5070644;28;20369;-72
2023/01/04 14:03:45;;;;;;;2.00;0.80;;;;;;;;;;5089021;28;20099;-72
2023/01/04 14:06:31;;;;;;;1.20;0.82;;;;;;;;;;5071315;28;20060;-72
2023/01/04 14:09:19;;;;;;;2.05;1.02;;;;;;;;;;5083061;28;20573;-70
2023/01/04 14:12:12;;;;;;;2.40;1.20;;;;;;;;;;5073605;28;20036;-74
2023/01/04 14:14:59;;;;;;;1.60;0.93;;;;;;;;;;5071061;28;20035;-72
2023/01/04 14:17:47;;;;;;;2.90;0.75;;;;;;;;;;5078213;28;20040;-76
2023/01/04 14:20:35;;;;;;;1.35;0.80;;;;;;;;;;5070915;28;20048;-73
2023/01/04 14:23:46;;;;;;;1.48;0.90;;;;;;;;;;5077146;28;20462;-75
2023/01/04 14:26:32;;;;;;;3.95;0.80;;;;;;;;;;5070869;28;20460;-73
2023/01/04 14:29:20;;;;;;;1.17;0.77;;;;;;;;;;5070867;28;20101;-81
2023/01/04 14:32:07;;;;;;;2.08;1.00;;;;;;;;;;5071404;28;20113;-72
2023/01/04 14:34:53;;;;;;;0.95;0.85;;;;;;;;;;5082549;28;20057;-72
2023/01/04 14:37:38;;;;;;;2.38;1.00;;;;;;;;;;5078432;28;20146;-72
2023/01/04 14:40:25;;;;;;;2.40;0.80;;;;;;;;;;5070474;28;20043;-73
2023/01/04 14:43:52;;;;;;;2.22;0.80;;;;;;;;;;5080379;28;20036;-74
2023/01/04 14:46:37;;;;;;;2.30;0.90;;;;;;;;;;5005934;28;20037;-72
2023/01/04 14:49:25;;;;;;;1.17;0.80;;;;;;;;;;5028366;28;20092;-79
2023/01/04 14:52:16;;;;;;;1.02;0.82;;;;;;;;;;5028412;28;20033;-78
2023/01/04 14:55:03;;;;;;;1.38;1.00;;;;;;;;;;5028652;28;20024;-81
2023/01/04 14:57:49;;;;;;;2.22;1.00;;;;;;;;;;5028745;28;20056;-80
2023/01/04 15:00:34;;;;;;;1.45;0.90;;;;;;;;;;5041073;28;20552;-81
2023/01/04 15:03:19;;;;;;;1.23;0.70;;;;;;;;;;5029236;28;20550;-80
2023/01/04 15:06:05;;;;;;;1.60;0.90;;;;;;;;;;5027828;28;20500;-70
2023/01/04 15:08:51;;;;;;;1.58;0.73;;;;;;;;;;5040909;28;20086;-68
2023/01/04 15:11:36;;;;;;;2.13;0.95;;;;;;;;;;5028841;28;20123;-68
2023/01/04 15:14:21;;;;;;;1.10;1.00;;;;;;;;;;5030300;28;20037;-68
2023/01/04 15:17:07;;;;;;;1.65;0.82;;;;;;;;;;5049404;28;20534;-67
2023/01/04 15:19:52;;;;;;;0.90;0.90;;;;;;;;;;5068340;28;20040;-67
2023/01/04 15:22:38;;;;;;;1.27;0.93;;;;;;;;;;5077367;28;20047;-71
2023/01/04 15:25:24;;;;;;;1.38;0.95;;;;;;;;;;5057144;28;20506;-74
2023/01/04 15:28:09;;;;;;;3.90;1.55;;;;;;;;;;5069809;28;20095;-70
2023/01/04 15:30:54;;;;;;;2.58;0.88;;;;;;;;;;5056766;28;20028;-70
2023/01/04 15:33:39;;;;;;;1.42;0.90;;;;;;;;;;5077628;28;20517;-71
2023/01/04 15:36:25;;;;;;;2.15;0.73;;;;;;;;;;5079386;28;20136;-70
2023/01/04 15:39:11;;;;;;;1.30;0.90;;;;;;;;;;5080779;28;20069;-69
2023/01/04 15:45:00;;;;;;;1.10;0.70;;;;;;;;;;5069589;28;20040;-75
2023/01/04 15:47:45;;;;;;;3.05;1.20;;;;;;;;;;5069066;28;20029;-76
2023/01/04 15:50:34;;;;;;;1.42;0.90;;;;;;;;;;5069230;28;20036;-75
2023/01/04 15:53:20;;;;;;;3.10;0.90;;;;;;;;;;5073681;28;20418;-75
2023/01/04 15:56:06;;;;;;;1.55;1.13;;;;;;;;;;5069450;28;20028;-75
2023/01/04 15:58:53;;;;;;;1.00;0.73;;;;;;;;;;5079262;28;20031;-75
2023/01/04 16:01:38;;;;;;;2.97;1.00;;;;;;;;;;5068586;28;20120;-74
2023/01/04 16:04:24;;;;;;;1.38;0.93;;;;;;;;;;5080582;28;20123;-80
2023/01/04 16:07:10;;;;;;;1.15;0.88;;;;;;;;;;5073723;28;20032;-83
2023/01/04 16:09:55;;;;;;;3.53;0.93;;;;;;;;;;5079508;28;20028;-82
2023/01/04 16:12:40;;;;;;;1.25;1.15;;;;;;;;;;5076480;28;20544;-81
2023/01/04 16:15:25;;;;;;;3.67;1.30;;;;;;;;;;5068718;28;20414;-82
2023/01/04 16:18:11;;;;;;;1.73;1.33;;;;;;;;;;5071239;28;20032;-69
2023/01/04 16:20:56;;;;;;;1.75;0.80;;;;;;;;;;5075890;28;20036;-75
2023/01/04 16:23:41;;;;;;;1.25;1.10;;;;;;;;;;5084707;28;20035;-75
2023/01/04 16:26:26;;;;;;;1.50;1.00;;;;;;;;;;5072074;28;20043;-76
2023/01/04 16:29:12;;;;;;;2.15;1.00;;;;;;;;;;5071973;28;20499;-76
2023/01/04 16:31:57;;;;;;;3.95;1.50;;;;;;;;;;5080437;28;20115;-76
2023/01/04 16:34:43;;;;;;;2.83;1.20;;;;;;;;;;5073067;28;20028;-72
2023/01/04 16:37:29;;;;;;;3.60;0.90;;;;;;;;;;5068905;28;20044;-72
2023/01/04 16:40:14;;;;;;;2.42;0.80;;;;;;;;;;5072328;28;20032;-76
2023/01/04 16:42:59;;;;;;;1.33;1.15;;;;;;;;;;5057822;28;20078;-75
2023/01/04 16:45:45;;;;;;;3.90;1.10;;;;;;;;;;5073850;28;20515;-75
2023/01/04 16:48:30;;;;;;;2.40;1.10;;;;;;;;;;5067955;28;20095;-75
2023/01/04 16:51:16;;;;;;;1.58;0.90;;;;;;;;;;5063466;28;20357;-75
2023/01/04 16:54:02;;;;;;;2.22;1.13;;;;;;;;;;5074335;28;20215;-75
2023/01/04 16:56:48;;;;;;;1.90;0.95;;;;;;;;;;5068127;28;20047;-73
2023/01/04 16:59:33;;;;;;;1.35;0.80;;;;;;;;;;5073058;28;20075;-70
2023/01/04 17:02:18;;;;;;;0.98;0.70;;;;;;;;;;5067366;28;20034;-68
2023/01/04 17:05:04;;;;;;;3.17;1.27;;;;;;;;;;5071740;28;20058;-68
2023/01/04 17:07:49;;;;;;;1.60;1.13;;;;;;;;;;5073322;28;20375;-68
2023/01/04 17:10:35;;;;;;;1.60;0.88;;;;;;;;;;5061917;28;20078;-68
2023/01/04 17:13:20;;;;;;;1.92;0.90;;;;;;;;;;5068730;28;20034;-68
2023/01/04 17:16:06;;;;;;;2.25;0.70;;;;;;;;;;5080834;28;20031;-72
2023/01/04 17:18:52;;;;;;;2.13;0.95;;;;;;;;;;5072665;28;20035;-72
2023/01/04 17:21:37;;;;;;;1.02;0.73;;;;;;;;;;5068471;28;20085;-72
2023/01/04 17:24:23;;;;;;;5.47;1.10;;;;;;;;;;5069826;28;20380;-71
2023/01/04 17:27:08;;;;;;;1.10;0.80;;;;;;;;;;5052400;28;20049;-72
2023/01/04 17:29:53;;;;;;;1.63;0.80;;;;;;;;;;5060581;28;20044;-73